Huntington, UT

2:03 PM MDT on October 21, 2014 (GMT -0600)
Provo Municipal | Change Station
CLOSE
Current Station
Airport
Location: Provo,
Elevation: 4495 ft
Nearby Weather Stations

Elev 4495 ft 40.22 °N, 111.72 °W | Updated 1 hour ago

Partly Cloudy
Partly Cloudy
66 °F
Feels Like 66 °F
N
18
Wind Variable Wind from NW
Gusts 25 mph

Today
High -- | Low -- °F
--% Chance of Precip.
Yesterday
High -- | Low -- °F
Precip. -- in
7:40 AM 6:36 PM
Waning Crescent, 4% visible
Pressure 29.94 in
Visibility 10.0 miles
Clouds Mostly Cloudy 5000 ft
Dew Point 41 °F
Humidity 40%
Rainfall 0.00 in
Snow Depth Not available.
UV 3 out of 12
Pollen 1.50 out of 12
Air Quality Not available.
Flu Activity Sporadic
METAR KPVU 211850Z 31016G22KT 10SM BKN050 19/05 A2994 RMK LTG DSNT N&NE

More Conditions Fewer Conditions

Pressure 29.94 in
Visibility 10.0 miles
Clouds Mostly Cloudy 5000 ft
Dew Point 41 °F
Humidity 40%
Rainfall 0.00 in
Snow Depth Not available.
UV 3 out of 12
Pollen 1.50 out of 12
Air Quality Not available.
Flu Activity Sporadic
METAR KPVU 211850Z 31016G22KT 10SM BKN050 19/05 A2994 RMK LTG DSNT N&NE

More Conditions Fewer Conditions

10-Day Weather Forecast

Almanac

Astronomy

Oct. 21, 2014 Rise Set
Actual Time 7:40 AM MDT 6:36 PM MDT
Civil Twilight 7:12 AM MDT 7:03 PM MDT
Nautical Twilight 6:41 AM MDT 7:34 PM MDT
Astronomical Twilight 6:10 AM MDT 8:05 PM MDT
Moon 5:28 AM MDT 5:31 PM MDT
Length of Visible Light 11h 50m
Length of Day
10h 56m
Tomorrow will be 2m 24s shorter.
Waning Crescent, 4% of the Moon is Illuminated
Today
Waning Crescent
Oct 23
New
Oct 30
First Quarter
Nov 6
Full
Nov 14
Last Quarter

Today's Extremes

State Highs State Lows

Community

WunderPhotos

Upload Photos

1,763,757 photos uploaded!

Nearby

Snow Depth

Station Depth Elevation
Clear Creek #2 0 in 8300 ft
Gooseberry R.S. 0 in 7920 ft
Daniels-Strawberry 0 in 8000 ft
Cascade Mountain 1 in 7768 ft
Box Creek 0 in 9800 ft

Earthquake Activity

City Distance Mag. Time & Date
No recent earthquake activity has been reported nearby.
Minimum magnitude displayed is 2.5.

Coastal Water Temperatures

Place Temperature
No Stations Reporting

Nearby Weather Stations